Time;durP1;ratioP1;P1;durP2;ratioP2;P2;SDS_P1;SDS_P2;PMS_P1;PMS_P2;Temp;Humidity;BMP_temperature;BMP_pressure;BME280_temperature;BME280_humidity;BME280_pressure;Samples;Min_cycle;Max_cycle;Signal;HPM_P1;HPM_P2
2021/09/30 00:00:17;;;;;;;13.40;7.90;;;;;;;6.37;75.97;101227.16;1686010;83;20985;-53
2021/09/30 00:02:43;;;;;;;10.80;9.23;;;;;;;6.34;75.96;101225.84;1684760;83;21013;-52
2021/09/30 00:05:12;;;;;;;16.20;11.03;;;;;;;6.30;75.96;101231.64;1678828;84;20954;-52
2021/09/30 00:07:39;;;;;;;11.60;8.80;;;;;;;6.26;76.02;101232.58;1663829;83;20914;-52
2021/09/30 00:10:07;;;;;;;15.43;8.50;;;;;;;6.23;76.07;101233.92;1676526;84;22723;-52
2021/09/30 00:12:38;;;;;;;8.63;6.97;;;;;;;6.21;76.08;101238.39;1687987;83;20958;-52
2021/09/30 00:15:09;;;;;;;13.00;7.40;;;;;;;6.19;76.13;101230.86;1651341;84;20930;-51
2021/09/30 00:50:30;;;;;;;7.03;6.33;;;;;;;6.03;74.80;101227.40;1706124;82;21739;-51
2021/09/30 01:32:25;;;;;;;6.40;5.20;;;;;;;5.39;72.46;101239.25;1719140;80;21148;-52
2021/09/30 01:58:31;;;;;;;;;;;;;;;4.77;72.22;101243.83;1726106;82;21081;-52
2021/09/30 02:20:35;;;;;;;10.18;4.55;;;;;;;4.65;72.61;101233.64;1703559;82;21125;-51
2021/09/30 02:58:14;;;;;;;4.35;3.87;;;;;;;4.23;72.16;101241.19;1692345;81;21370;-51
2021/09/30 03:00:42;;;;;;;6.27;4.37;;;;;;;4.20;72.19;101238.06;1709188;81;21046;-51
2021/09/30 03:03:10;;;;;;;5.53;4.60;;;;;;;4.16;72.16;101238.96;1712858;81;20939;-51
2021/09/30 03:05:37;;;;;;;7.17;5.90;;;;;;;4.14;72.25;101238.95;1709875;82;21070;-51
2021/09/30 03:08:04;;;;;;;6.97;5.67;;;;;;;4.12;72.35;101239.83;1708615;82;21066;-51
2021/09/30 03:10:30;;;;;;;6.83;6.17;;;;;;;4.10;72.41;101241.16;1712815;81;21014;-51
2021/09/30 03:12:57;;;;;;;10.07;4.63;;;;;;;4.06;72.46;101243.83;1711135;82;20904;-51
2021/09/30 03:18:15;;;;;;;7.03;4.30;;;;;;;4.02;72.40;101245.58;1716890;81;21129;-51
2021/09/30 03:23:13;;;;;;;3.87;3.50;;;;;;;3.98;72.58;101237.59;1678756;83;20988;-51
2021/09/30 03:25:41;;;;;;;6.60;4.03;;;;;;;3.98;72.57;101239.81;1699714;82;21175;-52
2021/09/30 03:28:09;;;;;;;5.80;4.53;;;;;;;3.99;72.57;101240.27;1666075;83;21408;-52
2021/09/30 03:30:38;;;;;;;5.23;4.70;;;;;;;3.99;72.55;101242.93;1629251;85;21711;-52
2021/09/30 03:33:07;;;;;;;5.17;4.67;;;;;;;3.99;72.55;101240.70;1677209;83;22337;-51
2021/09/30 03:35:38;;;;;;;6.67;4.87;;;;;;;3.98;72.58;101235.82;1664827;84;21436;-51
2021/09/30 03:38:06;;;;;;;6.20;5.57;;;;;;;3.98;72.55;101241.59;1678113;84;21894;-51
2021/09/30 03:40:32;;;;;;;19.10;10.87;;;;;;;3.96;72.47;101239.36;1665367;84;21455;-51
2021/09/30 03:42:58;;;;;;;24.37;17.40;;;;;;;3.92;72.30;101234.89;1667528;83;22761;-51
2021/09/30 03:45:25;;;;;;;36.60;24.33;;;;;;;3.86;72.30;101239.77;1665151;85;21172;-51
2021/09/30 03:47:59;;;;;;;63.33;41.68;;;;;;;3.82;72.25;101234.45;1671793;83;21357;-51
2021/09/30 03:50:30;;;;;;;54.13;37.07;;;;;;;3.74;72.24;101237.95;1691945;83;21064;-51
2021/09/30 03:53:08;;;;;;;41.40;27.90;;;;;;;3.68;72.27;101239.27;1692223;83;21399;-51
2021/09/30 03:55:56;;;;;;;36.47;24.23;;;;;;;3.67;72.37;101239.27;1640817;84;21621;-51
2021/09/30 04:00:54;;;;;;;25.43;17.07;;;;;;;3.63;72.61;101236.16;1694716;83;28341;-51
2021/09/30 04:03:20;;;;;;;19.60;14.53;;;;;;;3.64;72.66;101237.94;1670199;83;21147;-51
2021/09/30 04:05:48;;;;;;;19.27;14.00;;;;;;;3.65;72.79;101234.40;1689805;83;21727;-51
2021/09/30 04:08:16;;;;;;;19.23;14.37;;;;;;;3.66;72.84;101237.48;1679059;83;21447;-52
2021/09/30 04:10:44;;;;;;;23.97;14.27;;;;;;;3.65;72.67;101242.39;1674212;84;21502;-52
2021/09/30 04:13:10;;;;;;;17.50;12.93;;;;;;;3.63;72.73;101246.38;1674880;84;21120;-52
2021/09/30 04:15:37;;;;;;;16.57;11.53;;;;;;;3.65;72.66;101243.72;1673229;84;21089;-52
2021/09/30 04:18:04;;;;;;;15.87;11.30;;;;;;;3.62;72.70;101249.91;1673997;83;21160;-52
2021/09/30 04:20:31;;;;;;;16.53;11.87;;;;;;;3.61;72.71;101247.23;1682692;83;22845;-52
2021/09/30 04:23:03;;;;;;;14.03;10.60;;;;;;;3.60;72.83;101246.34;1652778;85;21152;-52
2021/09/30 04:25:27;;;;;;;15.83;11.73;;;;;;;3.59;72.84;101242.34;1677500;84;20899;-52
2021/09/30 04:27:54;;;;;;;14.47;8.83;;;;;;;3.57;72.99;101245.47;1685979;83;21017;-52
2021/09/30 04:30:21;;;;;;;11.70;7.07;;;;;;;3.55;73.01;101248.56;1676340;84;21217;-52
2021/09/30 04:32:54;;;;;;;8.48;6.05;;;;;;;3.54;73.16;101242.34;1675660;84;22519;-52
2021/09/30 04:35:21;;;;;;;8.30;5.53;;;;;;;3.54;73.45;101252.99;1668285;84;21398;-53
2021/09/30 04:37:47;;;;;;;7.33;5.30;;;;;;;3.56;73.61;101254.34;1670757;84;21125;-52
2021/09/30 04:40:14;;;;;;;6.40;4.80;;;;;;;3.59;73.77;101251.66;1681331;83;21068;-52
2021/09/30 04:42:41;;;;;;;10.53;5.37;;;;;;;3.64;73.95;101251.26;1669386;83;21148;-51
2021/09/30 04:45:09;;;;;;;11.37;5.97;;;;;;;3.69;74.11;101253.48;1674347;83;21274;-52
2021/09/30 04:47:38;;;;;;;9.23;5.53;;;;;;;3.73;74.10;101255.28;1685393;83;21028;-52
2021/09/30 04:50:13;;;;;;;8.80;6.93;;;;;;;3.76;74.06;101253.50;1656689;84;21084;-52
2021/09/30 04:52:39;;;;;;;7.67;5.93;;;;;;;3.78;74.14;101253.07;1661925;84;21172;-52
2021/09/30 04:55:07;;;;;;;10.50;6.63;;;;;;;3.78;74.17;101258.40;1665664;83;21129;-52
2021/09/30 04:57:34;;;;;;;14.53;7.17;;;;;;;3.78;74.30;101261.06;1684583;83;21124;-51
2021/09/30 05:00:01;;;;;;;6.73;6.10;;;;;;;3.78;74.47;101260.17;1655232;85;21610;-51
2021/09/30 05:02:47;;;;;;;13.32;6.97;;;;;;;3.79;74.58;101259.29;1672786;84;29123;-51
2021/09/30 05:05:15;;;;;;;8.40;5.23;;;;;;;3.81;74.72;101257.53;1656181;84;22577;-52
2021/09/30 05:07:42;;;;;;;9.80;5.60;;;;;;;3.85;74.93;101259.30;1655254;85;21085;-52
2021/09/30 05:10:11;;;;;;;12.17;5.00;;;;;;;3.90;75.09;101264.22;1655983;85;23363;-51
2021/09/30 05:12:40;;;;;;;10.07;4.80;;;;;;;3.95;75.22;101263.78;1657992;85;21129;-52
2021/09/30 05:15:10;;;;;;;5.77;4.80;;;;;;;4.02;75.25;101262.01;1657939;85;22351;-52
2021/09/30 05:17:38;;;;;;;9.63;5.07;;;;;;;4.08;75.43;101262.91;1656029;85;21034;-51
2021/09/30 05:20:08;;;;;;;13.27;6.77;;;;;;;4.13;75.61;101262.93;1653748;85;21098;-51
2021/09/30 05:22:35;;;;;;;10.30;6.40;;;;;;;4.19;75.80;101269.59;1655241;85;21169;-51
2021/09/30 05:25:02;;;;;;;7.90;6.87;;;;;;;4.23;75.84;101267.84;1652080;85;21653;-51
2021/09/30 05:27:30;;;;;;;10.63;6.43;;;;;;;4.28;75.97;101269.61;1654807;85;21038;-51
2021/09/30 05:29:57;;;;;;;13.90;6.13;;;;;;;4.33;76.18;101276.30;1658937;85;21462;-51
2021/09/30 05:32:25;;;;;;;9.03;6.37;;;;;;;4.36;76.31;101282.50;1656026;85;21117;-51
2021/09/30 05:34:53;;;;;;;8.17;5.33;;;;;;;4.40;76.36;101276.30;1653951;85;21071;-50
2021/09/30 05:37:20;;;;;;;8.53;5.00;;;;;;;4.46;76.52;101282.97;1652559;85;21111;-51
2021/09/30 05:39:47;;;;;;;11.13;5.93;;;;;;;4.51;76.72;101281.63;1654648;85;21110;-51
2021/09/30 05:42:14;;;;;;;9.47;5.43;;;;;;;4.58;76.87;101282.54;1655216;85;21058;-50
2021/09/30 05:44:40;;;;;;;6.63;4.03;;;;;;;4.65;77.05;101288.31;1655680;85;21082;-51
2021/09/30 05:47:08;;;;;;;4.33;3.93;;;;;;;4.74;77.15;101286.98;1656381;85;21150;-51
2021/09/30 05:49:34;;;;;;;7.83;3.63;;;;;;;4.82;77.28;101285.20;1656516;84;21105;-51
2021/09/30 05:52:19;;;;;;;7.80;3.95;;;;;;;4.90;77.35;101288.30;1652534;85;26675;-51
2021/09/30 05:54:48;;;;;;;9.33;4.87;;;;;;;4.98;77.46;101284.29;1655125;85;21086;-51
2021/09/30 05:57:16;;;;;;;7.60;5.87;;;;;;;5.04;77.56;101292.72;1654746;85;21556;-51
2021/09/30 05:59:42;;;;;;;6.17;5.37;;;;;;;5.10;77.63;101290.96;1655898;85;21722;-51
2021/09/30 06:13:00;;;;;;;8.87;6.27;;;;;;;5.52;78.87;101295.75;1656301;85;22219;-51
2021/09/30 06:15:31;;;;;;;7.67;6.07;;;;;;;5.64;79.23;101292.57;1655778;85;20983;-52
2021/09/30 06:17:58;;;;;;;7.77;7.07;;;;;;;5.79;79.46;101290.27;1658430;85;21415;-52
2021/09/30 06:20:26;;;;;;;12.87;8.43;;;;;;;5.97;79.66;101294.23;1656675;85;21042;-51
2021/09/30 06:22:55;;;;;;;10.87;7.77;;;;;;;6.16;79.75;101292.80;1655175;85;21491;-51
2021/09/30 06:25:22;;;;;;;9.00;8.07;;;;;;;6.33;79.83;101294.92;1652556;84;21524;-51
2021/09/30 06:27:48;;;;;;;14.43;9.73;;;;;;;6.49;79.85;101293.92;1645975;85;21516;-52
2021/09/30 06:30:15;;;;;;;10.87;8.07;;;;;;;6.60;79.77;101286.71;1654257;85;21580;-52
2021/09/30 06:35:18;;;;;;;11.30;7.80;;;;;;;6.86;79.75;101280.25;1864297;75;22050;-52
2021/09/30 06:37:46;;;;;;;12.30;7.63;;;;;;;6.95;79.58;101289.55;1867165;75;20902;-52
2021/09/30 06:40:13;;;;;;;8.73;6.90;;;;;;;7.06;79.33;101293.02;1873249;75;21083;-51
2021/09/30 06:42:41;;;;;;;8.03;6.17;;;;;;;7.15;79.26;101285.75;1848537;75;20929;-51
2021/09/30 06:45:13;;;;;;;9.50;6.33;;;;;;;7.29;79.08;101286.08;1871102;75;21041;-52
2021/09/30 06:47:41;;;;;;;7.80;7.03;;;;;;;7.42;78.94;101293.95;1876716;75;20922;-52
2021/09/30 06:50:11;;;;;;;11.83;7.90;;;;;;;7.53;78.67;101298.75;1868471;75;20997;-52
2021/09/30 06:52:54;;;;;;;11.18;7.33;;;;;;;7.65;78.43;101295.51;1879408;75;22316;-51
2021/09/30 06:55:42;;;;;;;8.90;8.00;;;;;;;7.75;78.31;101301.16;1865693;75;20938;-52
2021/09/30 06:58:23;;;;;;;12.78;7.97;;;;;;;7.84;78.17;101299.71;1781681;78;21084;-52
2021/09/30 07:00:49;;;;;;;6.97;6.27;;;;;;;7.93;77.81;101288.42;1816906;75;21054;-52
2021/09/30 07:03:34;;;;;;;7.55;5.70;;;;;;;8.04;77.39;101290.97;1868739;75;21028;-52
2021/09/30 07:06:17;;;;;;;7.10;6.08;;;;;;;8.13;76.85;101297.55;1864571;75;21089;-52
2021/09/30 07:08:44;;;;;;;8.05;5.15;;;;;;;8.24;76.51;101296.96;1866482;75;21321;-52
2021/09/30 07:11:10;;;;;;;8.45;6.10;;;;;;;8.35;76.32;101296.36;1869524;75;21077;-52
2021/09/30 07:13:37;;;;;;;8.33;6.20;;;;;;;8.46;76.10;101298.00;1869325;75;21405;-52
2021/09/30 07:16:03;;;;;;;12.30;9.65;;;;;;;8.56;76.01;101300.53;1873729;75;21021;-52
2021/09/30 07:18:31;;;;;;;10.60;8.08;;;;;;;8.65;75.56;101290.99;1871493;75;21096;-52
2021/09/30 07:21:00;;;;;;;9.03;6.67;;;;;;;8.75;75.26;101288.16;1871307;75;21080;-52
2021/09/30 07:23:29;;;;;;;12.25;7.80;;;;;;;8.83;74.99;101299.20;1869932;75;21175;-52
2021/09/30 07:25:56;;;;;;;15.85;8.10;;;;;;;8.89;74.72;101293.72;1869356;75;20887;-52
2021/09/30 07:28:22;;;;;;;8.10;7.35;;;;;;;8.98;74.51;101298.05;1865771;75;21356;-53
2021/09/30 07:30:49;;;;;;;7.08;5.50;;;;;;;9.07;74.14;101290.72;1868090;75;21567;-52
2021/09/30 07:33:16;;;;;;;11.90;5.95;;;;;;;9.17;73.89;101294.59;1833496;76;21147;-52
2021/09/30 07:35:43;;;;;;;8.78;7.20;;;;;;;9.26;73.85;101290.39;1835734;77;20914;-52
2021/09/30 07:38:09;;;;;;;9.33;7.60;;;;;;;9.35;73.56;101294.26;1832567;77;21037;-52
2021/09/30 07:40:35;;;;;;;6.05;5.53;;;;;;;9.44;73.23;101290.05;1807117;77;21046;-53
2021/09/30 07:43:03;;;;;;;11.73;6.80;;;;;;;9.55;72.41;101289.36;1831023;76;21357;-52
2021/09/30 07:45:30;;;;;;;10.63;7.37;;;;;;;9.64;72.01;101293.67;1836020;77;21028;-52
2021/09/30 07:47:56;;;;;;;6.17;5.67;;;;;;;9.72;71.55;101289.91;1808788;77;21386;-52
2021/09/30 07:50:23;;;;;;;11.12;4.87;;;;;;;9.79;71.06;101287.97;1807673;77;21049;-52
2021/09/30 07:52:50;;;;;;;6.85;4.30;;;;;;;9.83;70.07;101289.24;1829274;77;21302;-53
2021/09/30 07:55:16;;;;;;;5.22;2.30;;;;;;;9.89;69.81;101282.84;1830468;77;21332;-52
2021/09/30 07:57:42;;;;;;;2.08;1.37;;;;;;;9.97;68.82;101286.70;1812158;77;20931;-52
2021/09/30 08:00:10;;;;;;;3.15;1.50;;;;;;;10.02;67.37;101288.40;1806265;77;21621;-52
2021/09/30 08:02:40;;;;;;;8.75;3.17;;;;;;;10.08;65.88;101286.91;1807666;77;21378;-53
2021/09/30 08:05:07;;;;;;;5.85;2.72;;;;;;;10.13;65.52;101292.17;1801662;78;21033;-53
2021/09/30 08:07:35;;;;;;;2.65;1.98;;;;;;;10.18;64.53;101293.02;1804417;78;21492;-53
2021/09/30 08:10:06;;;;;;;4.30;1.20;;;;;;;10.23;63.37;101291.09;1805589;78;21449;-53
2021/09/30 08:12:33;;;;;;;3.92;2.62;;;;;;;10.25;62.58;101293.30;1801711;78;21006;-53
2021/09/30 08:14:59;;;;;;;2.70;2.50;;;;;;;10.28;62.29;101293.70;1803156;78;21096;-53
2021/09/30 08:17:27;;;;;;;3.77;2.67;;;;;;;10.30;62.44;101290.48;1805734;78;21057;-53
2021/09/30 08:19:53;;;;;;;4.72;2.17;;;;;;;10.31;62.21;101293.15;1802230;78;21143;-53
2021/09/30 08:22:20;;;;;;;2.20;2.00;;;;;;;10.31;61.76;101295.84;1804880;78;21494;-53
2021/09/30 08:24:46;;;;;;;2.35;1.80;;;;;;;10.32;61.47;101293.58;1802039;78;21056;-53
2021/09/30 08:27:13;;;;;;;2.90;1.65;;;;;;;10.31;60.72;101289.11;1801712;78;21678;-53
2021/09/30 08:29:40;;;;;;;3.42;1.70;;;;;;;10.31;60.59;101293.15;1807162;78;21634;-52
2021/09/30 08:32:08;;;;;;;1.72;1.05;;;;;;;10.32;60.32;101284.16;1804943;78;21008;-53
2021/09/30 08:34:35;;;;;;;1.45;1.00;;;;;;;10.35;60.25;101287.25;1792529;78;21570;-53
2021/09/30 08:37:01;;;;;;;4.25;1.20;;;;;;;10.37;59.91;101288.99;1788999;79;21092;-53
2021/09/30 08:39:28;;;;;;;2.98;1.35;;;;;;;10.37;59.70;101284.95;1792505;79;21092;-53
2021/09/30 08:41:55;;;;;;;1.57;1.20;;;;;;;10.39;59.58;101285.78;1790757;79;21371;-53
2021/09/30 08:44:23;;;;;;;2.25;0.98;;;;;;;10.40;59.35;101283.52;1813321;78;21104;-53
2021/09/30 08:46:49;;;;;;;4.70;0.95;;;;;;;10.41;59.38;101289.79;1792209;79;20911;-53
2021/09/30 08:49:16;;;;;;;4.90;1.20;;;;;;;10.42;59.10;101287.06;1792324;79;20904;-53
2021/09/30 08:51:44;;;;;;;2.33;1.25;;;;;;;10.43;59.21;101285.27;1793608;79;21499;-53
2021/09/30 08:54:10;;;;;;;2.22;1.42;;;;;;;10.45;59.52;101283.43;1803134;78;20914;-53
2021/09/30 08:56:37;;;;;;;3.77;1.77;;;;;;;10.45;59.48;101285.66;1802694;79;21792;-53
2021/09/30 08:59:28;;;;;;;1.95;1.70;;;;;;;10.45;59.12;101283.43;1804257;79;21870;-53
2021/09/30 09:02:10;;;;;;;1.72;1.62;;;;;;;10.44;59.09;101285.69;1817208;78;20924;-53
2021/09/30 09:04:54;;;;;;;3.35;1.57;;;;;;;10.44;59.25;101274.47;1793724;78;20914;-53
2021/09/30 09:07:27;;;;;;;2.92;1.40;;;;;;;10.46;59.16;101282.52;1760170;79;20946;-53
2021/09/30 09:09:56;;;;;;;2.02;1.22;;;;;;;10.46;59.07;101277.98;1791737;79;21377;-54
2021/09/30 09:12:23;;;;;;;2.45;1.87;;;;;;;10.47;59.07;101274.83;1800615;78;20965;-52
2021/09/30 09:14:50;;;;;;;5.08;2.20;;;;;;;10.47;59.16;101275.72;1802640;78;20934;-53
2021/09/30 09:17:17;;;;;;;2.95;2.12;;;;;;;10.48;59.30;101270.77;1798504;78;20970;-53
2021/09/30 09:19:46;;;;;;;2.15;1.65;;;;;;;10.51;59.42;101273.85;1802220;78;21331;-53
2021/09/30 09:22:30;;;;;;;1.37;1.25;;;;;;;10.51;59.53;101272.50;1796850;78;21145;-54
2021/09/30 09:25:08;;;;;;;1.80;1.55;;;;;;;10.50;59.37;101278.35;1790925;78;21606;-53
2021/09/30 09:27:56;;;;;;;2.15;1.57;;;;;;;10.49;59.18;101276.58;1804983;78;22608;-53
2021/09/30 09:31:51;;;;;;;2.27;1.10;;;;;;;10.52;59.08;101271.13;1768859;78;22626;-53
2021/09/30 09:34:28;;;;;;;4.53;2.20;;;;;;;10.47;59.47;101271.67;1709581;81;21037;-53
2021/09/30 09:37:30;;;;;;;9.98;1.87;;;;;;;10.52;59.95;101272.94;1679453;83;21455;-53
2021/09/30 09:39:53;;;;;;;5.70;3.42;;;;;;;10.54;60.12;101274.67;1680967;83;21073;-53
2021/09/30 09:42:25;;;;;;;4.17;3.77;;;;;;;10.57;60.26;101271.89;1674162;83;21073;-53
2021/09/30 09:45:00;;;;;;;3.15;2.90;;;;;;;10.58;60.17;101276.36;1657886;83;21276;-53
2021/09/30 09:47:29;;;;;;;4.08;3.33;;;;;;;10.59;59.95;101278.59;1675940;83;21105;-53
2021/09/30 09:50:22;;;;;;;3.33;3.12;;;;;;;10.59;60.01;101278.13;1676872;83;20982;-53
2021/09/30 09:52:53;;;;;;;6.50;2.72;;;;;;;10.63;59.87;101275.38;1678921;83;20927;-53
2021/09/30 09:55:32;;;;;;;2.85;2.65;;;;;;;10.67;60.04;101270.32;1676960;83;21127;-54
2021/09/30 09:58:16;;;;;;;2.08;1.87;;;;;;;10.70;59.85;101272.95;1678344;83;21102;-53
2021/09/30 10:01:00;;;;;;;3.12;2.30;;;;;;;10.72;59.45;101273.31;1677208;83;21085;-54
2021/09/30 10:03:33;;;;;;;4.10;2.58;;;;;;;10.77;59.53;101275.91;1683057;83;21078;-53
2021/09/30 10:06:03;;;;;;;2.98;2.50;;;;;;;10.84;58.86;101274.83;1676644;83;21053;-53
2021/09/30 10:08:30;;;;;;;2.40;2.15;;;;;;;10.89;58.71;101272.42;1680552;83;21092;-53
2021/09/30 10:10:56;;;;;;;2.47;2.05;;;;;;;10.95;58.47;101265.56;1672707;83;21531;-53
2021/09/30 10:13:25;;;;;;;2.37;1.90;;;;;;;11.02;57.97;101261.34;1673524;83;21009;-53
2021/09/30 10:15:54;;;;;;;2.80;1.90;;;;;;;11.04;57.76;101267.13;1680513;83;21093;-53
2021/09/30 10:18:26;;;;;;;2.77;2.05;;;;;;;11.10;57.78;101266.96;1680508;83;22403;-54
2021/09/30 10:20:56;;;;;;;2.12;1.95;;;;;;;11.14;57.49;101262.39;1668389;83;21504;-53
2021/09/30 10:23:28;;;;;;;4.08;1.65;;;;;;;11.15;57.61;101265.48;1678114;83;20953;-54
2021/09/30 10:26:13;;;;;;;3.52;1.77;;;;;;;11.18;57.48;101273.03;1680249;83;21148;-53
2021/09/30 10:28:42;;;;;;;1.70;1.10;;;;;;;11.23;57.43;101268.39;1663955;84;21124;-53
2021/09/30 10:31:27;;;;;;;7.50;2.08;;;;;;;11.28;56.86;101265.13;1663608;84;20916;-53
2021/09/30 10:33:54;;;;;;;2.50;1.55;;;;;;;11.32;56.96;101256.02;1677841;83;21048;-53
2021/09/30 10:36:37;;;;;;;2.00;1.80;;;;;;;11.36;56.82;101266.26;1675908;83;21069;-54
2021/09/30 10:39:22;;;;;;;3.25;1.70;;;;;;;11.34;56.82;101258.20;1680020;83;21089;-53
2021/09/30 10:42:00;;;;;;;1.87;1.55;;;;;;;11.36;56.31;101261.76;1661169;84;21112;-54
2021/09/30 10:44:34;;;;;;;3.95;2.00;;;;;;;11.34;56.11;101250.13;1654770;84;22340;-53
2021/09/30 10:46:59;;;;;;;3.05;1.92;;;;;;;11.38;56.26;101254.98;1675470;83;21374;-53
2021/09/30 10:49:32;;;;;;;7.85;2.22;;;;;;;11.40;55.93;101253.09;1678585;83;20882;-53
2021/09/30 10:52:27;;;;;;;2.60;2.25;;;;;;;11.40;55.98;101258.49;1678685;83;21008;-53
2021/09/30 10:55:06;;;;;;;6.08;1.82;;;;;;;11.40;56.08;101259.84;1674269;83;21142;-53
2021/09/30 10:57:45;;;;;;;1.87;1.67;;;;;;;11.42;55.98;101256.64;1658721;84;21670;-53
2021/09/30 11:00:21;;;;;;;9.28;2.17;;;;;;;11.44;55.53;101255.27;1661105;84;21148;-53
2021/09/30 11:03:05;;;;;;;;;;;;;;;11.44;55.26;101248.06;1658205;84;21070;-53
2021/09/30 11:05:43;;;;;;;6.10;2.83;;;;;;;11.45;55.50;101246.25;1658728;84;20445;-53
2021/09/30 11:08:24;;;;;;;1.90;1.70;;;;;;;11.48;55.59;101244.36;1662888;84;21440;-53
2021/09/30 11:11:07;;;;;;;2.47;1.87;;;;;;;11.51;55.50;101246.95;1664456;84;21537;-54
2021/09/30 11:13:36;;;;;;;2.83;2.20;;;;;;;11.55;55.21;101241.02;1659757;84;21002;-54
2021/09/30 11:16:07;;;;;;;3.67;3.25;;;;;;;11.62;55.30;101243.49;1680625;83;21084;-53
2021/09/30 11:18:53;;;;;;;8.18;2.77;;;;;;;11.68;55.57;101238.38;1677836;83;21116;-53
2021/09/30 11:21:37;;;;;;;8.35;2.90;;;;;;;11.73;55.48;101237.33;1683695;83;20886;-53
2021/09/30 11:24:13;;;;;;;4.65;2.72;;;;;;;11.77;55.18;101238.60;1678256;83;20993;-53
2021/09/30 11:26:55;;;;;;;2.92;2.72;;;;;;;11.79;54.76;101235.41;1675894;83;21048;-53
2021/09/30 11:29:25;;;;;;;7.83;6.65;;;;;;;11.75;54.41;101235.94;1677699;83;21056;-53
2021/09/30 11:32:02;;;;;;;7.83;5.10;;;;;;;11.67;54.28;101239.30;1666692;83;21017;-53
2021/09/30 11:34:36;;;;;;;9.48;4.47;;;;;;;11.62;54.59;101231.81;1660895;84;21162;-53
2021/09/30 11:37:35;;;;;;;10.10;2.80;;;;;;;11.57;55.14;101235.98;1697351;82;21191;-54
2021/09/30 11:40:00;;;;;;;7.80;2.85;;;;;;;11.60;55.25;101237.71;1702525;82;22351;-54
2021/09/30 11:42:40;;;;;;;2.58;1.82;;;;;;;11.65;54.68;101230.39;1661883;84;21518;-54
2021/09/30 11:45:14;;;;;;;7.20;2.42;;;;;;;11.63;54.22;101215.59;1662587;83;20974;-53
2021/09/30 11:47:41;;;;;;;6.65;2.15;;;;;;;11.60;54.28;101216.14;1666492;84;21797;-54
2021/09/30 11:50:14;;;;;;;4.92;2.60;;;;;;;11.60;54.35;101211.62;1668827;84;20982;-54
2021/09/30 11:52:42;;;;;;;3.05;2.17;;;;;;;11.64;54.34;101216.02;1701691;82;20863;-53
2021/09/30 11:55:13;;;;;;;3.22;2.05;;;;;;;11.69;54.43;101214.06;1669083;83;20950;-54
2021/09/30 11:57:43;;;;;;;3.37;1.77;;;;;;;11.74;53.86;101215.25;1703837;82;20946;-54
2021/09/30 12:00:14;;;;;;;5.25;2.37;;;;;;;11.79;53.65;101209.31;1670033;82;21093;-54
2021/09/30 12:03:00;;;;;;;5.90;2.22;;;;;;;11.84;53.50;101211.39;1704200;82;20952;-53
2021/09/30 12:05:29;;;;;;;11.97;3.10;;;;;;;11.89;53.51;101206.76;1701480;82;21456;-54
2021/09/30 12:07:58;;;;;;;4.15;2.25;;;;;;;11.92;53.02;101203.95;1706761;82;20926;-54
2021/09/30 12:10:27;;;;;;;3.00;2.80;;;;;;;11.92;53.32;101203.95;1667932;83;20962;-54
2021/09/30 12:12:53;;;;;;;5.55;2.27;;;;;;;11.94;53.37;101202.55;1700403;82;21094;-54
2021/09/30 12:15:19;;;;;;;4.58;2.25;;;;;;;11.95;53.55;101190.38;1707224;82;20950;-54
2021/09/30 12:17:48;;;;;;;7.10;3.27;;;;;;;12.00;53.37;101191.09;1668348;83;20942;-53
2021/09/30 12:20:17;;;;;;;6.72;2.22;;;;;;;12.01;53.36;101184.77;1668460;84;21385;-53
2021/09/30 12:22:51;;;;;;;3.90;3.27;;;;;;;12.02;53.39;101187.89;1665765;84;20961;-53
2021/09/30 12:25:21;;;;;;;5.87;2.47;;;;;;;12.00;53.17;101180.30;1667248;84;21188;-54
2021/09/30 12:27:49;;;;;;;3.35;2.75;;;;;;;12.01;52.95;101183.42;1663142;83;21085;-54
2021/09/30 12:30:22;;;;;;;4.65;3.33;;;;;;;11.99;53.11;101177.18;1705124;82;21085;-54
2021/09/30 12:33:01;;;;;;;3.52;2.17;;;;;;;11.99;53.25;101181.23;1708552;81;21514;-54
2021/09/30 12:35:32;;;;;;;3.60;2.77;;;;;;;12.03;53.07;101176.63;1712762;81;21058;-53
2021/09/30 12:38:01;;;;;;;5.33;2.53;;;;;;;12.04;53.39;101173.89;1677330;83;21104;-53
2021/09/30 12:40:37;;;;;;;9.55;3.22;;;;;;;12.05;53.87;101168.91;1677373;83;22583;-54
2021/09/30 12:43:27;;;;;;;2.80;2.60;;;;;;;12.06;53.56;101169.80;1671233;83;20986;-54
2021/09/30 12:46:01;;;;;;;10.38;2.70;;;;;;;12.06;53.54;101170.69;1671086;83;21101;-54
2021/09/30 12:48:33;;;;;;;5.10;3.05;;;;;;;12.10;53.16;101166.05;1669013;83;21141;-53
2021/09/30 12:51:05;;;;;;;2.37;1.60;;;;;;;12.13;53.35;101164.62;1668491;83;21190;-53
2021/09/30 12:53:41;;;;;;;5.10;2.15;;;;;;;12.21;53.12;101158.97;1668002;83;21141;-54
2021/09/30 12:56:09;;;;;;;3.35;1.67;;;;;;;12.28;52.78;101158.71;1676964;83;21084;-54
2021/09/30 12:58:45;;;;;;;2.40;1.17;;;;;;;12.33;52.49;101155.87;1669209;83;20993;-54
2021/09/30 13:01:26;;;;;;;1.40;1.30;;;;;;;12.40;51.98;101160.13;1670452;83;21010;-54
2021/09/30 13:04:06;;;;;;;5.00;1.70;;;;;;;12.47;51.58;101157.17;1674421;83;21175;-54
2021/09/30 13:06:33;;;;;;;6.85;1.50;;;;;;;12.49;51.12;101151.72;1677409;83;21547;-54
2021/09/30 13:08:59;;;;;;;3.62;1.30;;;;;;;12.50;50.78;101150.80;1669397;83;21090;-54
2021/09/30 13:11:35;;;;;;;3.45;1.20;;;;;;;12.49;50.53;101142.27;1667616;83;21157;-54
2021/09/30 13:14:27;;;;;;;2.58;1.35;;;;;;;12.52;50.74;101140.80;1672097;83;20982;-53
2021/09/30 13:17:19;;;;;;;1.40;1.30;;;;;;;12.73;50.50;101131.96;1674043;83;21058;-53
2021/09/30 13:20:04;;;;;;;1.30;1.20;;;;;;;12.87;50.00;101128.29;1670332;83;20899;-54
2021/09/30 13:22:36;;;;;;;2.15;1.10;;;;;;;12.93;49.62;101124.97;1647092;84;21085;-54
2021/09/30 13:25:09;;;;;;;1.20;0.90;;;;;;;12.98;49.40;101130.61;1652472;84;20984;-53
2021/09/30 13:27:40;;;;;;;2.15;1.10;;;;;;;13.00;49.23;101121.98;1677330;83;21052;-54
2021/09/30 13:30:10;;;;;;;6.25;1.10;;;;;;;13.02;48.98;101121.44;1677972;83;21098;-54
2021/09/30 13:32:39;;;;;;;2.45;1.27;;;;;;;13.01;48.90;101117.00;1664620;83;21049;-53
2021/09/30 13:35:07;;;;;;;8.05;1.27;;;;;;;13.00;49.04;101111.64;1660913;84;21097;-53
2021/09/30 13:37:34;;;;;;;1.70;1.40;;;;;;;12.93;49.17;101106.91;1698030;82;21452;-53
2021/09/30 13:40:00;;;;;;;2.95;1.02;;;;;;;12.93;49.17;101106.91;1663386;83;21093;-54
2021/09/30 13:42:29;;;;;;;11.45;2.58;;;;;;;12.92;49.37;101110.58;1663435;84;21146;-54
2021/09/30 13:44:57;;;;;;;4.72;1.65;;;;;;;12.92;49.80;101102.94;1666955;83;20954;-54
2021/09/30 13:47:28;;;;;;;1.32;1.20;;;;;;;12.89;50.18;101102.56;1669512;83;21057;-54
2021/09/30 13:49:56;;;;;;;1.87;1.37;;;;;;;12.88;49.82;101101.69;1697315;82;21013;-54
2021/09/30 13:52:23;;;;;;;6.42;1.22;;;;;;;12.84;49.68;101097.81;1695091;82;21034;-54
2021/09/30 13:54:49;;;;;;;6.65;1.40;;;;;;;12.81;49.77;101097.45;1693281;82;21765;-54
2021/09/30 13:57:16;;;;;;;2.90;1.62;;;;;;;12.80;49.86;101102.90;1699068;82;21667;-54
2021/09/30 13:59:43;;;;;;;2.52;1.35;;;;;;;12.78;49.93;101098.02;1701967;82;21022;-54
2021/09/30 14:02:09;;;;;;;2.58;1.20;;;;;;;12.76;49.89;101094.00;1666449;83;21068;-54
2021/09/30 14:04:35;;;;;;;3.92;1.45;;;;;;;12.72;49.61;101086.08;1698901;82;21233;-54
2021/09/30 14:07:07;;;;;;;5.45;1.12;;;;;;;12.71;50.06;101091.95;1698449;82;21208;-54
2021/09/30 14:09:34;;;;;;;2.10;1.30;;;;;;;12.69;50.11;101088.41;1664225;84;21112;-53
2021/09/30 14:12:03;;;;;;;5.37;1.30;;;;;;;12.67;50.17;101081.33;1660039;83;21084;-54
2021/09/30 14:14:31;;;;;;;2.10;1.65;;;;;;;12.62;49.91;101076.53;1663949;83;21147;-54
2021/09/30 14:16:57;;;;;;;5.92;1.12;;;;;;;12.58;49.78;101085.70;1667030;84;21108;-53
2021/09/30 14:19:25;;;;;;;1.32;1.17;;;;;;;12.54;50.25;101084.91;1665471;84;21169;-53
2021/09/30 14:21:53;;;;;;;1.65;1.30;;;;;;;12.51;50.34;101082.31;1664695;83;21444;-53
2021/09/30 14:24:20;;;;;;;1.20;0.90;;;;;;;12.48;50.41;101085.14;1704380;82;21077;-53
2021/09/30 14:26:46;;;;;;;4.37;1.17;;;;;;;12.45;50.65;101082.53;1666598;83;21418;-53
2021/09/30 14:29:12;;;;;;;3.08;0.98;;;;;;;12.42;50.75;101077.23;1700682;82;21050;-53
2021/09/30 14:31:40;;;;;;;1.27;1.17;;;;;;;12.39;50.99;101076.89;1698858;81;21150;-53
2021/09/30 14:34:07;;;;;;;3.47;1.60;;;;;;;12.35;51.01;101082.43;1711052;81;21484;-53
2021/09/30 14:36:35;;;;;;;3.62;1.20;;;;;;;12.32;51.06;101078.51;1714469;81;20989;-53